Lutcher, Louisiana
Current Conditions -  °F | °C
As of 8:35 PM on Thursday 20 Nov 2014 (Local Time) from K1L0 Reporting Station
Clear Clear  
Wind Chill: 12°   Ceiling: Unl
Heat Index: 12°   Visibility: 10mi
Dew Point:   Wind: 0mph
Humidity: 75%   Direction: NA
Pressure: 30.23"   Gusts: NA
Location:  30.04°N, 90.7°W
Report Text: K1L0 210235Z AUTO 00000KT 10SM CLR 12/08 A3023 RMK AO2 T01200076
Loading
Personal Weather Stations






























Interactive Weather Map New forecast layout! Learn more

10-Day Weather Forecast

Advertisements
Track Severe Weather on mobile